Time;durP1;ratioP1;P1;durP2;ratioP2;P2;SDS_P1;SDS_P2;PMS_P1;PMS_P2;Temp;Humidity;BMP_temperature;BMP_pressure;BME280_temperature;BME280_humidity;BME280_pressure;Samples;Min_cycle;Max_cycle;Signal;HPM_P1;HPM_P2
2022/08/05 00:01:11;;;;;;;;;;;27.30;45.60;;;;;;4897319;29;19912;-62
2022/08/05 00:03:36;;;;;;;;;;;27.20;45.80;;;;;;4898434;29;19922;-63
2022/08/05 00:06:02;;;;;;;;;;;27.30;45.80;;;;;;4898246;29;19962;-64
2022/08/05 00:08:27;;;;;;;;;;;27.50;45.50;;;;;;4898409;29;19919;-64
2022/08/05 00:10:53;;;;;;;;;;;27.50;45.40;;;;;;4898331;29;19971;-63
2022/08/05 00:13:18;;;;;;;;;;;27.40;45.90;;;;;;4898105;29;19916;-63
2022/08/05 00:15:44;;;;;;;;;;;27.30;46.30;;;;;;4898108;29;20427;-64
2022/08/05 00:18:10;;;;;;;;;;;27.40;46.10;;;;;;4898202;29;20332;-62
2022/08/05 00:20:35;;;;;;;;;;;27.40;45.90;;;;;;4897553;29;19912;-62
2022/08/05 00:23:01;;;;;;;;;;;27.50;45.90;;;;;;4897908;29;19960;-62
2022/08/05 00:25:26;;;;;;;;;;;27.50;45.80;;;;;;4882622;29;20356;-62
2022/08/05 00:27:52;;;;;;;;;;;27.60;45.80;;;;;;4897832;29;19986;-63
2022/08/05 00:30:17;;;;;;;;;;;27.50;45.80;;;;;;4897902;29;20010;-62
2022/08/05 00:32:43;;;;;;;;;;;27.50;45.40;;;;;;4897686;29;20391;-63
2022/08/05 00:35:08;;;;;;;;;;;27.60;44.30;;;;;;4897952;29;19912;-64
2022/08/05 00:37:34;;;;;;;;;;;27.50;44.20;;;;;;4897845;29;19918;-63
2022/08/05 00:39:59;;;;;;;;;;;27.50;44.30;;;;;;4897834;29;20006;-63
2022/08/05 00:42:32;;;;;;;;;;;27.50;44.40;;;;;;4897483;29;19966;-63
2022/08/05 00:44:57;;;;;;;;;;;27.50;44.10;;;;;;4897746;29;20283;-65
2022/08/05 00:47:23;;;;;;;;;;;27.50;44.00;;;;;;4897629;29;19920;-64
2022/08/05 00:49:48;;;;;;;;;;;27.50;43.70;;;;;;4897849;29;19962;-63
2022/08/05 00:52:14;;;;;;;;;;;27.50;44.00;;;;;;4897410;29;19916;-64
2022/08/05 00:54:39;;;;;;;;;;;27.50;43.90;;;;;;4897650;29;20002;-63
2022/08/05 00:57:05;;;;;;;;;;;27.50;44.10;;;;;;4880487;29;20395;-64
2022/08/05 00:59:30;;;;;;;;;;;27.40;44.50;;;;;;4897500;29;19911;-64
2022/08/05 01:01:56;;;;;;;;;;;27.30;44.80;;;;;;4897349;29;19919;-64
2022/08/05 01:04:21;;;;;;;;;;;27.20;45.00;;;;;;4897380;29;19915;-63
2022/08/05 01:06:47;;;;;;;;;;;27.20;44.40;;;;;;4897431;29;19920;-64
2022/08/05 01:09:13;;;;;;;;;;;27.20;44.20;;;;;;4897253;29;19915;-63
2022/08/05 01:11:39;;;;;;;;;;;27.10;43.90;;;;;;4897261;29;19918;-64
2022/08/05 01:14:19;;;;;;;;;;;27.10;44.60;;;;;;4897340;29;19911;-64
2022/08/05 01:17:03;;;;;;;;;;;27.10;45.60;;;;;;4897362;29;19915;-63
2022/08/05 01:19:34;;;;;;;;;;;27.00;45.40;;;;;;4897177;29;19916;-65
2022/08/05 01:22:12;;;;;;;;;;;27.10;45.10;;;;;;4897186;29;19926;-65
2022/08/05 01:24:40;;;;;;;;;;;27.10;44.80;;;;;;4897611;29;19983;-65
2022/08/05 01:27:21;;;;;;;;;;;27.00;46.00;;;;;;4886633;29;19923;-62
2022/08/05 01:29:48;;;;;;;;;;;26.90;45.60;;;;;;4897173;29;20002;-65
2022/08/05 01:32:17;;;;;;;;;;;26.80;46.10;;;;;;4901026;29;19922;-65
2022/08/05 01:34:52;;;;;;;;;;;26.70;46.80;;;;;;4903425;29;20447;-64
2022/08/05 01:37:21;;;;;;;;;;;26.60;47.60;;;;;;4903253;29;19912;-64
2022/08/05 01:39:48;;;;;;;;;;;26.50;47.60;;;;;;4903488;29;20026;-63
2022/08/05 01:42:16;;;;;;;;;;;26.50;48.00;;;;;;4903230;29;19956;-64
2022/08/05 01:44:42;;;;;;;;;;;26.40;48.40;;;;;;4903328;29;20382;-64
2022/08/05 01:47:09;;;;;;;;;;;26.40;47.80;;;;;;4902978;29;19919;-63
2022/08/05 01:49:35;;;;;;;;;;;26.40;48.30;;;;;;4903286;29;19923;-62
2022/08/05 01:52:02;;;;;;;;;;;26.40;47.70;;;;;;4903301;29;20503;-64
2022/08/05 01:54:38;;;;;;;;;;;26.50;46.70;;;;;;4903074;29;19916;-62
2022/08/05 01:57:05;;;;;;;;;;;26.60;45.90;;;;;;4889925;29;19927;-63
2022/08/05 01:59:32;;;;;;;;;;;26.80;46.20;;;;;;4902953;29;19915;-62
2022/08/05 02:01:59;;;;;;;;;;;26.80;45.50;;;;;;4903154;29;19919;-62
2022/08/05 02:04:25;;;;;;;;;;;27.00;45.60;;;;;;4903180;29;20372;-64
2022/08/05 02:06:51;;;;;;;;;;;27.10;44.90;;;;;;4903193;29;20294;-63
2022/08/05 02:09:17;;;;;;;;;;;27.00;45.10;;;;;;4903181;29;19998;-63
2022/08/05 02:12:00;;;;;;;;;;;27.00;45.20;;;;;;4903019;29;20397;-63
2022/08/05 02:14:25;;;;;;;;;;;27.10;45.00;;;;;;4903013;29;19966;-63
2022/08/05 02:16:52;;;;;;;;;;;27.10;44.80;;;;;;4903108;29;19946;-62
2022/08/05 02:19:19;;;;;;;;;;;27.20;45.00;;;;;;4903173;29;19915;-63
2022/08/05 02:21:51;;;;;;;;;;;27.20;45.00;;;;;;4902985;29;19912;-63
2022/08/05 02:24:18;;;;;;;;;;;27.10;45.00;;;;;;4903052;29;20364;-62
2022/08/05 02:26:52;;;;;;;;;;;27.00;45.10;;;;;;4895589;29;20010;-62
2022/08/05 02:29:19;;;;;;;;;;;27.00;45.50;;;;;;4903012;29;19955;-63
2022/08/05 02:31:46;;;;;;;;;;;26.90;45.80;;;;;;4902855;29;19945;-62
2022/08/05 02:34:13;;;;;;;;;;;26.90;46.10;;;;;;4889904;29;19918;-62
2022/08/05 02:36:44;;;;;;;;;;;27.00;46.00;;;;;;4903015;29;19918;-64
2022/08/05 02:39:10;;;;;;;;;;;27.00;46.00;;;;;;4901364;29;19916;-63
2022/08/05 02:41:37;;;;;;;;;;;27.00;45.70;;;;;;4902861;29;19965;-63
2022/08/05 02:44:07;;;;;;;;;;;26.90;46.10;;;;;;4899500;29;19912;-65
2022/08/05 02:46:37;;;;;;;;;;;26.80;46.50;;;;;;4899833;29;20014;-64
2022/08/05 02:49:04;;;;;;;;;;;26.80;46.50;;;;;;4899592;29;20002;-65
2022/08/05 02:51:30;;;;;;;;;;;26.80;46.50;;;;;;4899711;29;19921;-65
2022/08/05 02:53:55;;;;;;;;;;;26.80;47.50;;;;;;4899709;29;19920;-64
2022/08/05 02:56:21;;;;;;;;;;;26.80;46.90;;;;;;4893726;29;20424;-66
2022/08/05 02:58:48;;;;;;;;;;;26.90;46.70;;;;;;4899627;29;19911;-66
2022/08/05 03:01:16;;;;;;;;;;;26.90;46.90;;;;;;4899482;29;19911;-65
2022/08/05 03:03:42;;;;;;;;;;;26.80;46.80;;;;;;4899523;29;19911;-64
2022/08/05 03:06:11;;;;;;;;;;;26.80;46.80;;;;;;4899492;29;19923;-66
2022/08/05 03:08:37;;;;;;;;;;;26.80;47.20;;;;;;4899474;29;19923;-66
2022/08/05 03:11:03;;;;;;;;;;;26.70;47.40;;;;;;4899364;29;19950;-65
2022/08/05 03:13:28;;;;;;;;;;;26.60;48.10;;;;;;4899302;29;19955;-65
2022/08/05 03:15:54;;;;;;;;;;;26.50;48.60;;;;;;4899198;29;20419;-66
2022/08/05 03:18:20;;;;;;;;;;;26.40;49.10;;;;;;4899201;29;19961;-64
2022/08/05 03:20:45;;;;;;;;;;;26.40;49.50;;;;;;4899174;29;19912;-64
2022/08/05 03:23:12;;;;;;;;;;;26.30;50.10;;;;;;4899054;29;19911;-64
2022/08/05 03:25:39;;;;;;;;;;;26.30;49.40;;;;;;4886334;29;20814;-65
2022/08/05 03:28:06;;;;;;;;;;;26.30;50.00;;;;;;4899034;29;19926;-62
2022/08/05 03:30:32;;;;;;;;;;;26.30;49.80;;;;;;4899142;29;19911;-62
2022/08/05 03:32:58;;;;;;;;;;;26.10;50.60;;;;;;4898956;29;19927;-62
2022/08/05 03:35:24;;;;;;;;;;;26.20;50.50;;;;;;4898899;29;19911;-62
2022/08/05 03:37:50;;;;;;;;;;;26.10;51.00;;;;;;4898971;29;19915;-63
2022/08/05 03:40:15;;;;;;;;;;;26.10;50.80;;;;;;4898775;29;19918;-62
2022/08/05 03:42:41;;;;;;;;;;;26.00;51.30;;;;;;4898758;29;19915;-62
2022/08/05 03:45:07;;;;;;;;;;;25.90;51.90;;;;;;4898831;29;19919;-62
2022/08/05 03:47:33;;;;;;;;;;;25.90;51.80;;;;;;4898584;29;19920;-63
2022/08/05 03:49:58;;;;;;;;;;;25.90;51.80;;;;;;4898748;29;19922;-62
2022/08/05 03:52:26;;;;;;;;;;;25.90;51.70;;;;;;4898520;29;19915;-65
2022/08/05 03:54:57;;;;;;;;;;;25.90;52.00;;;;;;4898582;29;19943;-64
2022/08/05 03:57:25;;;;;;;;;;;26.00;51.90;;;;;;4880361;29;20390;-64
2022/08/05 03:59:54;;;;;;;;;;;26.10;51.50;;;;;;4898698;29;20374;-65
2022/08/05 04:02:22;;;;;;;;;;;26.20;50.90;;;;;;4898436;29;19966;-66
2022/08/05 04:04:48;;;;;;;;;;;26.20;50.80;;;;;;4898587;29;19946;-65
2022/08/05 04:07:14;;;;;;;;;;;26.10;51.00;;;;;;4898379;29;19978;-65
2022/08/05 04:09:39;;;;;;;;;;;26.00;51.30;;;;;;4898340;29;19947;-67
2022/08/05 04:12:06;;;;;;;;;;;26.00;51.20;;;;;;4898311;29;19911;-67
2022/08/05 04:14:32;;;;;;;;;;;26.00;50.80;;;;;;4898231;29;19912;-66
2022/08/05 04:16:58;;;;;;;;;;;26.10;50.30;;;;;;4898735;29;19918;-67
2022/08/05 04:19:24;;;;;;;;;;;26.00;50.70;;;;;;4897910;29;19924;-66
2022/08/05 04:21:50;;;;;;;;;;;26.10;50.20;;;;;;4898132;29;20376;-67
2022/08/05 04:24:15;;;;;;;;;;;26.20;49.90;;;;;;4898197;29;19970;-65
2022/08/05 04:26:41;;;;;;;;;;;26.10;50.60;;;;;;4886486;29;19922;-67
2022/08/05 04:29:06;;;;;;;;;;;26.00;50.50;;;;;;4897966;29;19999;-64
2022/08/05 04:31:32;;;;;;;;;;;26.00;50.40;;;;;;4897871;29;19997;-65
2022/08/05 04:33:57;;;;;;;;;;;26.10;50.20;;;;;;4897762;29;20356;-65
2022/08/05 04:36:23;;;;;;;;;;;26.20;49.60;;;;;;4897943;29;20260;-62
2022/08/05 04:38:48;;;;;;;;;;;26.20;49.40;;;;;;4897991;29;20488;-65
2022/08/05 04:41:14;;;;;;;;;;;26.20;50.10;;;;;;4896822;29;20352;-64
2022/08/05 04:43:40;;;;;;;;;;;26.20;49.90;;;;;;4897598;29;19919;-66
2022/08/05 04:46:05;;;;;;;;;;;26.20;50.30;;;;;;4897632;29;20379;-62
2022/08/05 04:48:31;;;;;;;;;;;26.20;50.10;;;;;;4897576;29;19971;-62
2022/08/05 04:50:56;;;;;;;;;;;26.20;50.30;;;;;;4897551;29;19928;-62
2022/08/05 04:53:22;;;;;;;;;;;26.20;50.40;;;;;;4897765;29;20336;-64
2022/08/05 04:55:48;;;;;;;;;;;26.20;50.70;;;;;;4883790;29;19920;-65
2022/08/05 04:58:15;;;;;;;;;;;26.20;50.60;;;;;;4897582;29;19963;-63
2022/08/05 05:00:41;;;;;;;;;;;26.20;50.70;;;;;;4897474;29;20265;-65
2022/08/05 05:03:07;;;;;;;;;;;26.20;50.80;;;;;;4897295;29;19918;-65
2022/08/05 05:05:33;;;;;;;;;;;26.20;52.10;;;;;;4896014;29;20330;-63
2022/08/05 05:07:59;;;;;;;;;;;26.00;53.00;;;;;;4896973;29;20317;-65
2022/08/05 05:10:24;;;;;;;;;;;26.00;52.70;;;;;;4897082;29;19963;-66
2022/08/05 05:12:50;;;;;;;;;;;26.00;53.40;;;;;;4897114;29;19923;-65
2022/08/05 05:15:16;;;;;;;;;;;26.00;53.50;;;;;;4897301;29;19923;-66
2022/08/05 05:17:44;;;;;;;;;;;26.00;53.00;;;;;;4897142;29;19912;-65
2022/08/05 05:20:11;;;;;;;;;;;25.90;53.10;;;;;;4897222;29;19919;-65
2022/08/05 05:22:36;;;;;;;;;;;25.90;53.70;;;;;;4897095;29;19916;-67
2022/08/05 05:25:03;;;;;;;;;;;25.80;54.70;;;;;;4897129;29;19918;-67
2022/08/05 05:27:29;;;;;;;;;;;25.80;54.70;;;;;;4884323;29;19942;-67
2022/08/05 05:29:55;;;;;;;;;;;25.80;54.20;;;;;;4896386;29;19911;-66
2022/08/05 05:32:20;;;;;;;;;;;25.80;54.00;;;;;;4896175;29;19915;-67
2022/08/05 05:34:46;;;;;;;;;;;25.70;55.10;;;;;;4897035;29;19966;-67
2022/08/05 05:37:13;;;;;;;;;;;25.90;54.60;;;;;;4896965;29;19963;-67
2022/08/05 05:39:39;;;;;;;;;;;25.90;53.60;;;;;;4897042;29;19963;-67
2022/08/05 05:42:05;;;;;;;;;;;25.90;54.90;;;;;;4896717;29;19911;-67
2022/08/05 05:44:30;;;;;;;;;;;25.90;55.10;;;;;;4897044;29;19911;-66
2022/08/05 05:46:56;;;;;;;;;;;25.90;55.00;;;;;;4896880;29;20283;-66
2022/08/05 05:49:22;;;;;;;;;;;26.00;55.30;;;;;;4897072;29;19923;-66
2022/08/05 05:51:47;;;;;;;;;;;26.00;55.40;;;;;;4896913;29;19920;-64
2022/08/05 05:54:13;;;;;;;;;;;26.00;55.40;;;;;;4896810;29;20337;-65
2022/08/05 05:56:39;;;;;;;;;;;25.90;55.30;;;;;;4886547;29;20026;-63
2022/08/05 05:59:05;;;;;;;;;;;26.20;54.60;;;;;;4896765;29;19912;-63
2022/08/05 06:01:31;;;;;;;;;;;26.70;53.80;;;;;;4896779;29;20006;-63
2022/08/05 06:03:57;;;;;;;;;;;27.30;52.70;;;;;;4895692;29;20137;-61
2022/08/05 06:06:22;;;;;;;;;;;28.00;50.90;;;;;;4895540;29;20419;-63
2022/08/05 06:08:48;;;;;;;;;;;28.50;49.40;;;;;;4895650;29;20439;-61
2022/08/05 06:11:13;;;;;;;;;;;29.00;49.00;;;;;;4895547;29;20576;-62
2022/08/05 06:13:39;;;;;;;;;;;29.50;47.70;;;;;;4895533;29;19919;-62
2022/08/05 06:16:05;;;;;;;;;;;29.80;45.80;;;;;;4895401;29;19918;-61
2022/08/05 06:18:30;;;;;;;;;;;30.20;44.50;;;;;;4896334;29;19965;-64
2022/08/05 06:20:56;;;;;;;;;;;30.50;45.60;;;;;;4899337;29;20376;-64
2022/08/05 06:23:21;;;;;;;;;;;30.80;43.80;;;;;;4900309;29;19918;-63
2022/08/05 06:25:47;;;;;;;;;;;31.00;41.70;;;;;;4879616;29;19959;-63
2022/08/05 06:28:13;;;;;;;;;;;31.20;41.30;;;;;;4899966;29;19923;-64
2022/08/05 06:30:38;;;;;;;;;;;31.40;42.60;;;;;;4899662;29;20024;-64
2022/08/05 06:33:04;;;;;;;;;;;31.60;42.10;;;;;;4899988;29;19919;-62
2022/08/05 06:35:30;;;;;;;;;;;31.70;41.10;;;;;;4900108;29;19928;-61
2022/08/05 06:37:55;;;;;;;;;;;31.80;39.50;;;;;;4899991;29;20006;-59
2022/08/05 06:40:21;;;;;;;;;;;32.00;39.20;;;;;;4899785;29;20283;-60
2022/08/05 06:42:47;;;;;;;;;;;32.10;38.70;;;;;;4899668;29;19920;-60
2022/08/05 06:45:13;;;;;;;;;;;32.20;38.30;;;;;;4898214;29;19923;-59
2022/08/05 06:47:38;;;;;;;;;;;32.30;37.90;;;;;;4898654;29;19964;-60
2022/08/05 06:50:04;;;;;;;;;;;32.40;37.70;;;;;;4898610;29;20276;-61
2022/08/05 06:52:30;;;;;;;;;;;32.50;37.40;;;;;;4898433;29;19920;-60
2022/08/05 06:54:55;;;;;;;;;;;32.50;37.40;;;;;;4898389;29;19918;-65
2022/08/05 06:57:21;;;;;;;;;;;32.60;37.20;;;;;;4885798;29;19923;-61
2022/08/05 06:59:46;;;;;;;;;;;32.70;37.30;;;;;;4899474;29;20400;-60
2022/08/05 07:02:12;;;;;;;;;;;32.90;36.90;;;;;;4899339;29;19982;-60
2022/08/05 07:04:37;;;;;;;;;;;32.90;36.00;;;;;;4899491;29;20257;-59
2022/08/05 07:07:03;;;;;;;;;;;32.90;35.70;;;;;;4899406;29;19974;-61
2022/08/05 07:09:28;;;;;;;;;;;33.00;35.50;;;;;;4898002;29;19919;-63
2022/08/05 07:11:55;;;;;;;;;;;33.00;35.00;;;;;;4899167;29;19915;-60
2022/08/05 07:17:05;;;;;;;;;;;33.20;35.30;;;;;;4899460;29;19943;-64
2022/08/05 07:19:30;;;;;;;;;;;33.30;35.50;;;;;;4899046;29;19915;-61
2022/08/05 07:21:56;;;;;;;;;;;33.30;36.80;;;;;;4899418;29;19912;-64
2022/08/05 07:24:22;;;;;;;;;;;33.20;37.60;;;;;;4899070;29;19916;-61
2022/08/05 07:26:48;;;;;;;;;;;33.20;37.80;;;;;;4886242;29;19923;-63
2022/08/05 07:29:14;;;;;;;;;;;33.20;38.30;;;;;;4898450;29;19918;-60
2022/08/05 07:31:40;;;;;;;;;;;33.10;39.10;;;;;;4899080;29;19911;-65
2022/08/05 07:34:05;;;;;;;;;;;33.10;39.40;;;;;;4898923;29;20381;-60
2022/08/05 07:36:34;;;;;;;;;;;33.10;39.50;;;;;;4898916;29;19915;-64
2022/08/05 07:39:01;;;;;;;;;;;33.00;39.60;;;;;;4898833;29;20382;-65
2022/08/05 07:41:26;;;;;;;;;;;33.00;39.60;;;;;;4898728;29;19915;-59
2022/08/05 07:43:52;;;;;;;;;;;33.10;39.50;;;;;;4898726;29;19917;-61
2022/08/05 07:46:18;;;;;;;;;;;33.00;39.50;;;;;;4898794;29;19912;-60
2022/08/05 07:48:44;;;;;;;;;;;33.10;39.00;;;;;;4898725;29;19979;-63
2022/08/05 07:51:09;;;;;;;;;;;33.10;38.80;;;;;;4898570;29;19915;-66
2022/08/05 07:53:35;;;;;;;;;;;33.10;39.10;;;;;;4898527;29;20390;-66
2022/08/05 07:56:02;;;;;;;;;;;33.10;39.40;;;;;;4881368;29;19924;-63
2022/08/05 07:58:27;;;;;;;;;;;33.20;39.20;;;;;;4898870;29;19912;-62
2022/08/05 08:00:53;;;;;;;;;;;33.30;39.20;;;;;;4898350;29;19971;-63
2022/08/05 08:03:18;;;;;;;;;;;33.30;38.10;;;;;;4898403;29;19946;-68
2022/08/05 08:05:44;;;;;;;;;;;33.40;38.30;;;;;;4898242;29;19951;-61
2022/08/05 08:08:10;;;;;;;;;;;33.40;37.90;;;;;;4898236;29;19990;-62
2022/08/05 08:10:35;;;;;;;;;;;33.50;37.80;;;;;;4898080;29;19912;-61
2022/08/05 08:13:01;;;;;;;;;;;33.50;37.90;;;;;;4897820;29;19918;-62
2022/08/05 08:15:26;;;;;;;;;;;33.60;37.80;;;;;;4897211;29;19915;-60
2022/08/05 08:17:52;;;;;;;;;;;33.60;36.90;;;;;;4897084;29;19916;-60
2022/08/05 08:20:17;;;;;;;;;;;33.60;36.10;;;;;;4897020;29;19918;-59
2022/08/05 08:22:49;;;;;;;;;;;33.60;35.90;;;;;;4896685;29;19922;-60
2022/08/05 08:25:14;;;;;;;;;;;33.50;36.10;;;;;;4895602;29;19963;-62
2022/08/05 08:27:41;;;;;;;;;;;33.40;35.80;;;;;;4882451;29;19927;-61
2022/08/05 08:30:10;;;;;;;;;;;33.30;37.00;;;;;;4896746;29;19911;-62
2022/08/05 08:32:35;;;;;;;;;;;33.20;37.60;;;;;;4896638;29;19911;-60
2022/08/05 08:35:01;;;;;;;;;;;33.30;37.60;;;;;;4896760;29;20403;-60
2022/08/05 08:37:27;;;;;;;;;;;33.30;37.70;;;;;;4896745;29;20450;-60
2022/08/05 08:39:52;;;;;;;;;;;33.30;37.00;;;;;;4896694;29;19915;-57
2022/08/05 08:42:18;;;;;;;;;;;33.30;37.20;;;;;;4895827;29;19916;-55
2022/08/05 08:44:43;;;;;;;;;;;33.10;38.40;;;;;;4897301;29;19912;-56
2022/08/05 08:47:10;;;;;;;;;;;33.10;38.80;;;;;;4897614;29;19967;-57
2022/08/05 08:49:37;;;;;;;;;;;32.90;39.60;;;;;;4896619;29;19915;-58
2022/08/05 08:52:12;;;;;;;;;;;32.90;39.70;;;;;;4896376;29;20276;-59
2022/08/05 08:54:38;;;;;;;;;;;32.80;39.90;;;;;;4896275;29;19919;-58
2022/08/05 08:57:07;;;;;;;;;;;32.70;39.50;;;;;;4885386;29;19946;-59
2022/08/05 08:59:34;;;;;;;;;;;32.60;39.90;;;;;;4896973;29;20010;-58
2022/08/05 09:02:03;;;;;;;;;;;32.40;40.80;;;;;;4896796;29;19926;-61
2022/08/05 09:04:28;;;;;;;;;;;32.40;39.60;;;;;;4896190;29;19916;-59
2022/08/05 09:06:54;;;;;;;;;;;32.40;39.40;;;;;;4896132;29;20289;-59
2022/08/05 09:09:19;;;;;;;;;;;32.40;38.80;;;;;;4896487;29;20043;-59
2022/08/05 09:11:45;;;;;;;;;;;32.40;39.20;;;;;;4896523;29;19966;-60
2022/08/05 09:14:11;;;;;;;;;;;32.40;39.30;;;;;;4897219;29;19919;-60
2022/08/05 09:16:38;;;;;;;;;;;32.40;39.00;;;;;;4897112;29;19966;-61
2022/08/05 09:19:03;;;;;;;;;;;32.40;39.60;;;;;;4897098;29;19946;-61
2022/08/05 09:21:29;;;;;;;;;;;32.40;39.70;;;;;;4897000;29;19955;-61
2022/08/05 09:24:05;;;;;;;;;;;32.30;39.80;;;;;;4896908;29;19915;-59
2022/08/05 09:26:30;;;;;;;;;;;32.40;39.10;;;;;;4886010;29;19915;-58
2022/08/05 09:29:03;;;;;;;;;;;32.30;39.00;;;;;;4897155;29;20407;-60
2022/08/05 09:31:29;;;;;;;;;;;32.40;38.70;;;;;;4897077;29;19912;-58
2022/08/05 09:34:00;;;;;;;;;;;32.30;37.80;;;;;;4896932;29;19915;-58
2022/08/05 09:36:44;;;;;;;;;;;32.30;38.50;;;;;;4896934;29;19916;-59
2022/08/05 09:39:10;;;;;;;;;;;32.40;38.60;;;;;;4896962;29;20283;-59
2022/08/05 09:41:55;;;;;;;;;;;32.40;37.90;;;;;;4897009;29;20371;-60
2022/08/05 09:44:35;;;;;;;;;;;32.30;37.40;;;;;;4896715;29;20418;-60
2022/08/05 09:47:08;;;;;;;;;;;32.30;37.10;;;;;;4896867;29;19926;-63
2022/08/05 09:49:33;;;;;;;;;;;32.20;36.60;;;;;;4896835;29;20406;-61
2022/08/05 09:52:15;;;;;;;;;;;32.10;37.00;;;;;;4896928;29;19916;-61
2022/08/05 09:54:50;;;;;;;;;;;32.00;37.10;;;;;;4900624;29;19962;-59
2022/08/05 09:57:27;;;;;;;;;;;31.90;38.00;;;;;;4884167;29;19931;-59
2022/08/05 09:59:56;;;;;;;;;;;31.90;38.30;;;;;;4900799;29;20014;-61
2022/08/05 10:02:31;;;;;;;;;;;31.80;38.10;;;;;;4900628;29;19958;-61
2022/08/05 10:05:02;;;;;;;;;;;31.80;38.10;;;;;;4900685;29;19923;-61
2022/08/05 10:07:48;;;;;;;;;;;31.80;38.10;;;;;;4900230;29;20272;-60
2022/08/05 10:10:14;;;;;;;;;;;31.80;38.80;;;;;;4900554;29;19911;-62
2022/08/05 10:13:06;;;;;;;;;;;31.70;38.60;;;;;;4900260;29;19915;-60
2022/08/05 10:15:35;;;;;;;;;;;31.60;38.90;;;;;;4899140;29;19946;-59
2022/08/05 10:18:07;;;;;;;;;;;31.60;39.40;;;;;;4900357;29;19915;-59
2022/08/05 10:20:35;;;;;;;;;;;31.60;39.20;;;;;;4900431;29;19960;-59
2022/08/05 10:23:00;;;;;;;;;;;31.60;39.00;;;;;;4900327;29;20295;-59
2022/08/05 10:25:26;;;;;;;;;;;31.60;39.10;;;;;;4900377;29;19911;-59
2022/08/05 10:27:52;;;;;;;;;;;31.60;38.80;;;;;;4890926;29;19971;-58
2022/08/05 10:30:18;;;;;;;;;;;31.60;38.90;;;;;;4900052;29;19918;-58
2022/08/05 10:32:45;;;;;;;;;;;31.70;39.40;;;;;;4899884;29;19923;-58
2022/08/05 10:35:10;;;;;;;;;;;31.70;39.80;;;;;;4900018;29;19966;-59
2022/08/05 10:37:36;;;;;;;;;;;31.70;40.00;;;;;;4900308;29;19919;-58
2022/08/05 10:40:04;;;;;;;;;;;31.70;39.20;;;;;;4899935;29;20390;-59
2022/08/05 10:42:35;;;;;;;;;;;31.70;39.30;;;;;;4899685;29;19916;-60
2022/08/05 10:45:04;;;;;;;;;;;31.70;39.70;;;;;;4899597;29;19915;-64
2022/08/05 10:47:35;;;;;;;;;;;31.70;39.30;;;;;;4899571;29;20015;-61
2022/08/05 10:50:01;;;;;;;;;;;31.70;39.60;;;;;;4899850;29;19931;-60
2022/08/05 10:52:56;;;;;;;;;;;31.70;39.80;;;;;;4899619;29;19915;-61
2022/08/05 10:55:21;;;;;;;;;;;31.70;39.70;;;;;;4899503;29;20280;-58
2022/08/05 10:57:47;;;;;;;;;;;31.80;40.00;;;;;;4888665;29;19920;-57
2022/08/05 11:00:13;;;;;;;;;;;31.80;39.50;;;;;;4899594;29;19920;-57
2022/08/05 11:02:58;;;;;;;;;;;32.00;39.20;;;;;;4899580;29;19921;-57
2022/08/05 11:05:24;;;;;;;;;;;32.50;38.70;;;;;;4898571;29;20077;-58
2022/08/05 11:07:56;;;;;;;;;;;32.90;37.20;;;;;;4899276;29;19984;-62
2022/08/05 11:10:23;;;;;;;;;;;33.20;36.30;;;;;;4899469;29;19951;-59
2022/08/05 11:12:48;;;;;;;;;;;33.40;36.30;;;;;;4899264;29;20391;-60
2022/08/05 11:15:17;;;;;;;;;;;33.60;37.00;;;;;;4899244;29;19916;-58
2022/08/05 11:17:43;;;;;;;;;;;33.80;36.50;;;;;;4899182;29;20375;-58
2022/08/05 11:20:27;;;;;;;;;;;34.00;35.40;;;;;;4899392;29;19919;-58
2022/08/05 11:22:53;;;;;;;;;;;34.30;36.10;;;;;;4898878;29;20002;-60
2022/08/05 11:25:43;;;;;;;;;;;34.20;35.30;;;;;;4898067;29;19967;-59
2022/08/05 11:28:08;;;;;;;;;;;34.10;34.80;;;;;;4884489;29;20378;-60
2022/08/05 11:30:52;;;;;;;;;;;34.10;34.90;;;;;;4879628;29;20002;-60
2022/08/05 11:33:35;;;;;;;;;;;34.10;35.20;;;;;;4879291;29;19912;-62
2022/08/05 11:36:00;;;;;;;;;;;34.10;35.20;;;;;;4881365;29;19923;-61
2022/08/05 11:38:41;;;;;;;;;;;34.10;35.10;;;;;;4889588;29;20276;-60
2022/08/05 11:41:06;;;;;;;;;;;34.30;34.70;;;;;;4892692;29;20368;-60
2022/08/05 11:43:32;;;;;;;;;;;34.20;34.90;;;;;;4897973;29;19923;-60
2022/08/05 11:45:59;;;;;;;;;;;34.10;35.10;;;;;;4897341;29;19916;-59
2022/08/05 11:48:25;;;;;;;;;;;33.90;35.30;;;;;;4898025;29;20367;-60
2022/08/05 11:50:51;;;;;;;;;;;33.80;35.00;;;;;;4897638;29;19959;-64
2022/08/05 11:53:17;;;;;;;;;;;34.00;35.40;;;;;;4898047;29;20383;-61
2022/08/05 11:55:56;;;;;;;;;;;34.10;35.40;;;;;;4879140;29;19980;-69
2022/08/05 11:58:35;;;;;;;;;;;34.10;35.20;;;;;;4883277;29;19959;-61
2022/08/05 12:01:04;;;;;;;;;;;34.00;35.30;;;;;;4882961;29;19920;-60
2022/08/05 12:03:39;;;;;;;;;;;33.80;35.70;;;;;;4880708;29;19912;-62
2022/08/05 12:06:04;;;;;;;;;;;33.90;36.10;;;;;;4882041;29;20300;-62
2022/08/05 12:08:30;;;;;;;;;;;34.10;35.60;;;;;;4879981;29;19927;-62
2022/08/05 12:10:57;;;;;;;;;;;34.10;35.70;;;;;;4880051;29;20271;-61
2022/08/05 12:13:22;;;;;;;;;;;34.10;36.00;;;;;;4881251;29;19916;-60
2022/08/05 12:15:48;;;;;;;;;;;34.10;35.70;;;;;;4879924;29;19918;-61
2022/08/05 12:18:17;;;;;;;;;;;34.10;35.70;;;;;;4880041;29;20428;-63
2022/08/05 12:20:42;;;;;;;;;;;34.20;35.70;;;;;;4878459;29;19919;-62
2022/08/05 12:23:08;;;;;;;;;;;34.20;36.10;;;;;;4879180;29;19916;-61
2022/08/05 12:25:53;;;;;;;;;;;34.30;36.10;;;;;;4868952;29;20437;-60
2022/08/05 12:28:34;;;;;;;;;;;34.20;35.40;;;;;;4885069;29;20270;-60
2022/08/05 12:31:00;;;;;;;;;;;34.20;35.70;;;;;;4882584;29;19919;-60
2022/08/05 12:33:26;;;;;;;;;;;34.10;36.20;;;;;;4880476;29;19916;-60
2022/08/05 12:35:53;;;;;;;;;;;34.00;35.80;;;;;;4879019;29;19922;-59
2022/08/05 12:38:18;;;;;;;;;;;33.80;36.10;;;;;;4888493;29;19968;-59
2022/08/05 12:40:44;;;;;;;;;;;33.60;36.40;;;;;;4879140;29;20009;-61
2022/08/05 12:43:10;;;;;;;;;;;33.60;36.30;;;;;;4885482;29;19918;-60
2022/08/05 12:45:35;;;;;;;;;;;33.60;36.50;;;;;;4882774;29;19931;-61
2022/08/05 12:48:14;;;;;;;;;;;33.60;36.30;;;;;;4879891;29;20323;-60
2022/08/05 12:50:39;;;;;;;;;;;33.60;36.00;;;;;;4887667;29;20443;-59
2022/08/05 12:53:05;;;;;;;;;;;33.70;35.80;;;;;;4897053;29;19916;-58
2022/08/05 12:55:30;;;;;;;;;;;33.70;35.70;;;;;;4887551;29;20455;-59
2022/08/05 12:57:57;;;;;;;;;;;33.70;36.10;;;;;;4897364;29;19995;-59
2022/08/05 13:00:24;;;;;;;;;;;33.80;35.90;;;;;;4897198;29;20375;-58
2022/08/05 13:02:51;;;;;;;;;;;33.80;36.20;;;;;;4897467;29;20028;-59
2022/08/05 13:05:16;;;;;;;;;;;34.00;35.10;;;;;;4897184;29;19911;-58
2022/08/05 13:07:44;;;;;;;;;;;34.00;36.30;;;;;;4897571;29;19975;-60
2022/08/05 13:10:10;;;;;;;;;;;34.10;35.60;;;;;;4897191;29;20452;-57
2022/08/05 13:12:40;;;;;;;;;;;34.20;34.90;;;;;;4897148;29;19963;-58
2022/08/05 13:15:08;;;;;;;;;;;34.20;35.50;;;;;;4897210;29;20281;-58
2022/08/05 13:17:33;;;;;;;;;;;34.30;34.50;;;;;;4897164;29;19964;-60
2022/08/05 13:19:59;;;;;;;;;;;34.40;34.00;;;;;;4897150;29;19942;-62
2022/08/05 13:22:25;;;;;;;;;;;34.30;33.90;;;;;;4897090;29;19915;-59
2022/08/05 13:24:50;;;;;;;;;;;34.40;34.30;;;;;;4897189;29;20014;-58
2022/08/05 13:27:26;;;;;;;;;;;34.30;35.40;;;;;;4878628;29;19930;-61
2022/08/05 13:29:52;;;;;;;;;;;34.30;35.80;;;;;;4896049;29;19926;-59
2022/08/05 13:32:18;;;;;;;;;;;34.10;36.00;;;;;;4895843;29;19915;-60
2022/08/05 13:34:43;;;;;;;;;;;34.00;37.00;;;;;;4894706;29;20269;-59
2022/08/05 13:37:09;;;;;;;;;;;33.70;37.80;;;;;;4895917;29;19911;-57
2022/08/05 13:39:34;;;;;;;;;;;33.70;37.70;;;;;;4896569;29;19916;-60
2022/08/05 13:42:00;;;;;;;;;;;33.80;38.90;;;;;;4897239;29;19916;-60
2022/08/05 13:44:26;;;;;;;;;;;33.90;38.60;;;;;;4896838;29;19952;-61
2022/08/05 13:46:51;;;;;;;;;;;33.90;38.50;;;;;;4896959;29;20393;-61
2022/08/05 13:49:17;;;;;;;;;;;33.80;39.40;;;;;;4896877;29;20372;-59
2022/08/05 13:51:42;;;;;;;;;;;33.70;39.30;;;;;;4897113;29;20243;-62
2022/08/05 13:54:08;;;;;;;;;;;33.60;40.30;;;;;;4896358;29;20495;-62
2022/08/05 13:56:34;;;;;;;;;;;33.50;40.70;;;;;;4887580;29;20336;-59
2022/08/05 13:58:59;;;;;;;;;;;33.40;40.90;;;;;;4897003;29;19920;-61
2022/08/05 14:01:25;;;;;;;;;;;33.20;42.40;;;;;;4894192;29;19971;-63
2022/08/05 14:06:34;;;;;;;;;;;32.80;42.80;;;;;;4895538;29;19959;-61
2022/08/05 14:09:00;;;;;;;;;;;32.80;43.70;;;;;;4895602;29;20336;-63
2022/08/05 14:11:26;;;;;;;;;;;32.70;43.20;;;;;;4895684;29;19920;-62
2022/08/05 14:13:52;;;;;;;;;;;32.50;42.60;;;;;;4895597;29;19940;-61
2022/08/05 14:16:18;;;;;;;;;;;32.40;42.80;;;;;;4893397;29;19915;-60
2022/08/05 14:18:44;;;;;;;;;;;32.30;42.80;;;;;;4896679;29;19915;-60
2022/08/05 14:21:09;;;;;;;;;;;32.30;42.30;;;;;;4896914;29;19915;-61
2022/08/05 14:23:35;;;;;;;;;;;32.20;41.00;;;;;;4896709;29;20010;-59